Benaguasil, Spain
Current Conditions -  °F | °C
As of 8:00 PM on Friday 28 Nov 2014 (Local Time) from LEBT Reporting Station
Broken Clouds Broken Clouds  
Wind Chill: 15°   Ceiling: 5700
Heat Index: 15°   Visibility: 6mi
Dew Point: 13°   Wind: 3mph
Humidity: 88%   Direction: 70°ENE
Pressure: 29.29"   Gusts: NA
Location:  39.6°N, 0.58°W
Report Text: LEBT 281900Z AUTO 07003KT 020V110 9999 // FEW015///SCT021/// BKN057/// 15/13 Q0992
Loading
Personal Weather Stations






























Interactive Weather Map New forecast layout! Learn more

10-Day Weather Forecast

Advertisements
Track Severe Weather on mobile